Time;durP1;ratioP1;P1;durP2;ratioP2;P2;SDS_P1;SDS_P2;PMS_P1;PMS_P2;Temp;Humidity;BMP_temperature;BMP_pressure;BME280_temperature;BME280_humidity;BME280_pressure;Samples;Min_cycle;Max_cycle;Signal;HPM_P1;HPM_P2
2021/12/30 00:00:44;;;;;;;1.75;0.20;;;14.10;99.90;;;;;;5084713;28;20021;-74
2021/12/30 00:03:10;;;;;;;2.45;0.40;;;14.10;99.90;;;;;;5084489;28;20117;-74
2021/12/30 00:05:37;;;;;;;2.58;0.25;;;14.10;99.90;;;;;;5085692;28;20338;-74
2021/12/30 00:08:04;;;;;;;0.47;0.10;;;14.10;99.90;;;;;;5084436;28;20027;-74
2021/12/30 00:10:30;;;;;;;0.65;0.40;;;14.20;99.90;;;;;;5082420;28;20052;-74
2021/12/30 00:12:57;;;;;;;0.17;0.17;;;14.10;99.90;;;;;;5084305;28;20080;-74
2021/12/30 00:15:24;;;;;;;0.75;0.32;;;14.10;99.90;;;;;;5085119;28;20234;-74
2021/12/30 00:17:49;;;;;;;1.85;0.30;;;14.20;99.90;;;;;;5084142;28;20193;-75
2021/12/30 00:20:16;;;;;;;0.40;0.40;;;14.20;99.90;;;;;;5085607;28;20092;-74
2021/12/30 00:22:42;;;;;;;0.20;0.10;;;14.20;99.90;;;;;;5085283;28;20012;-74
2021/12/30 00:25:11;;;;;;;5.07;0.40;;;14.20;99.90;;;;;;5085149;28;20330;-74
2021/12/30 00:27:37;;;;;;;1.23;0.30;;;14.20;99.90;;;;;;5084078;28;20256;-73
2021/12/30 00:30:05;;;;;;;0.28;0.28;;;14.20;99.90;;;;;;5083650;28;20024;-73
2021/12/30 00:32:31;;;;;;;0.52;0.22;;;14.20;99.90;;;;;;5084457;28;20052;-73
2021/12/30 00:34:57;;;;;;;1.95;0.30;;;14.20;99.90;;;;;;5084803;28;20016;-73
2021/12/30 00:37:22;;;;;;;1.25;0.30;;;14.20;99.90;;;;;;5085082;28;20024;-73
2021/12/30 00:39:48;;;;;;;0.08;0.08;;;14.20;99.90;;;;;;5084854;28;20028;-73
2021/12/30 00:42:14;;;;;;;0.20;0.13;;;14.20;99.90;;;;;;5084922;28;20024;-74
2021/12/30 00:44:39;;;;;;;1.67;0.20;;;14.30;99.90;;;;;;5083357;28;20021;-74
2021/12/30 00:47:05;;;;;;;0.57;0.13;;;14.30;99.90;;;;;;5084830;28;20200;-74
2021/12/30 00:49:31;;;;;;;0.20;0.20;;;14.30;99.90;;;;;;5084743;28;20024;-74
2021/12/30 00:51:57;;;;;;;0.20;0.17;;;14.30;99.90;;;;;;5084677;28;20016;-74
2021/12/30 00:54:23;;;;;;;0.52;0.10;;;14.30;99.90;;;;;;5084881;28;20246;-74
2021/12/30 00:56:50;;;;;;;0.20;0.20;;;14.30;99.90;;;;;;5084900;28;20016;-74
2021/12/30 00:59:16;;;;;;;2.30;2.10;;;14.30;99.90;;;;;;5083097;28;20020;-74
2021/12/30 01:01:42;;;;;;;0.95;0.25;;;14.30;99.90;;;;;;5084017;28;20028;-73
2021/12/30 01:04:09;;;;;;;0.10;0.10;;;14.30;99.90;;;;;;5084731;28;20020;-74
2021/12/30 01:06:34;;;;;;;0.32;0.20;;;14.30;99.90;;;;;;5083459;28;20023;-74
2021/12/30 01:09:00;;;;;;;0.40;0.38;;;14.30;99.90;;;;;;5066572;28;20024;-73
2021/12/30 01:11:26;;;;;;;0.45;0.20;;;14.40;99.90;;;;;;5082750;28;20021;-74
2021/12/30 01:16:44;;;;;;;0.50;0.20;;;14.40;99.90;;;;;;5083440;28;20031;-73
2021/12/30 01:21:56;;;;;;;0.10;0.10;;;14.50;99.90;;;;;;5069360;28;20028;-73
2021/12/30 01:24:22;;;;;;;0.80;0.20;;;14.50;99.90;;;;;;5083420;28;20055;-74
2021/12/30 01:26:48;;;;;;;0.20;0.20;;;14.50;99.90;;;;;;5082958;28;20087;-73
2021/12/30 01:29:14;;;;;;;0.20;0.20;;;14.40;99.90;;;;;;5066061;28;20238;-74
2021/12/30 01:31:40;;;;;;;0.30;0.17;;;14.40;99.90;;;;;;5082420;28;20334;-74
2021/12/30 01:34:06;;;;;;;0.43;0.30;;;14.40;99.90;;;;;;5082514;28;20083;-74
2021/12/30 01:36:31;;;;;;;0.40;0.28;;;14.30;99.90;;;;;;5084228;28;20019;-73
2021/12/30 01:38:57;;;;;;;1.52;0.32;;;14.40;99.90;;;;;;5084129;28;20021;-74
2021/12/30 01:41:23;;;;;;;1.05;0.30;;;14.30;99.90;;;;;;5084216;28;20180;-74
2021/12/30 01:43:49;;;;;;;1.17;0.20;;;14.30;99.90;;;;;;5083423;28;20020;-74
2021/12/30 01:46:15;;;;;;;0.28;0.20;;;14.30;99.90;;;;;;5084012;28;20013;-75
2021/12/30 01:48:42;;;;;;;0.35;0.20;;;14.30;99.90;;;;;;5091915;28;20021;-73
2021/12/30 01:51:09;;;;;;;1.63;0.55;;;14.20;99.90;;;;;;5097165;28;20029;-75
2021/12/30 01:53:36;;;;;;;0.45;0.45;;;14.20;99.90;;;;;;5095648;28;20026;-74
2021/12/30 01:56:04;;;;;;;0.55;0.25;;;14.20;99.90;;;;;;5093011;28;20059;-74
2021/12/30 01:58:30;;;;;;;1.17;0.15;;;14.20;99.90;;;;;;5088906;28;20080;-73
2021/12/30 02:00:56;;;;;;;2.00;0.20;;;14.20;99.90;;;;;;5082547;28;20322;-74
2021/12/30 02:03:22;;;;;;;1.23;0.15;;;14.20;99.90;;;;;;5082851;28;20021;-73
2021/12/30 02:05:48;;;;;;;2.28;0.32;;;14.20;99.90;;;;;;5082832;28;20028;-73
2021/12/30 02:08:16;;;;;;;1.27;0.13;;;14.20;99.90;;;;;;5083830;28;20024;-75
2021/12/30 02:10:43;;;;;;;1.63;0.20;;;14.20;99.90;;;;;;5083565;28;20028;-74
2021/12/30 02:13:11;;;;;;;1.42;0.30;;;14.20;99.90;;;;;;5081824;28;20039;-73
2021/12/30 02:15:37;;;;;;;0.70;0.20;;;14.30;99.90;;;;;;5083910;28;20027;-74
2021/12/30 02:18:03;;;;;;;0.20;0.10;;;14.30;99.90;;;;;;5083760;28;20021;-74
2021/12/30 02:20:54;;;;;;;1.77;0.57;;;14.40;99.90;;;;;;5083463;28;20067;-74
2021/12/30 02:23:25;;;;;;;0.75;0.20;;;14.40;99.90;;;;;;5083800;28;20051;-75
2021/12/30 02:25:54;;;;;;;1.52;0.38;;;14.40;99.90;;;;;;5082516;28;20030;-76
2021/12/30 02:28:23;;;;;;;2.55;0.43;;;14.50;99.90;;;;;;5065815;28;20365;-74
2021/12/30 02:30:51;;;;;;;2.17;0.20;;;14.50;99.90;;;;;;5081921;28;20027;-74
2021/12/30 02:33:17;;;;;;;2.83;0.95;;;14.50;99.90;;;;;;5082110;28;20090;-74
2021/12/30 02:35:43;;;;;;;0.30;0.20;;;14.50;99.90;;;;;;5082513;28;20076;-74
2021/12/30 02:38:09;;;;;;;0.50;0.30;;;14.50;99.90;;;;;;5082581;28;20029;-74
2021/12/30 02:40:39;;;;;;;0.45;0.30;;;14.50;99.90;;;;;;5083369;28;20083;-74
2021/12/30 02:43:07;;;;;;;1.40;0.40;;;14.50;99.90;;;;;;5083522;28;20047;-75
2021/12/30 02:45:33;;;;;;;1.05;0.30;;;14.60;99.90;;;;;;5082343;28;20021;-73
2021/12/30 02:47:59;;;;;;;2.25;0.30;;;14.60;99.90;;;;;;5083010;28;20024;-74
2021/12/30 02:50:25;;;;;;;1.40;0.22;;;14.60;99.90;;;;;;5083305;28;20021;-74
2021/12/30 02:52:50;;;;;;;1.02;0.40;;;14.60;99.90;;;;;;5083374;28;20039;-74
2021/12/30 02:55:16;;;;;;;3.95;0.40;;;14.60;99.90;;;;;;5087029;28;20087;-74
2021/12/30 02:57:42;;;;;;;2.78;0.65;;;14.60;99.90;;;;;;5086926;28;20027;-74
2021/12/30 03:00:10;;;;;;;1.98;0.40;;;14.60;99.90;;;;;;5085854;28;20050;-74
2021/12/30 03:02:38;;;;;;;1.55;0.50;;;14.60;99.90;;;;;;5085514;28;20032;-74
2021/12/30 03:05:05;;;;;;;1.92;0.43;;;14.60;99.90;;;;;;5085885;28;20036;-75
2021/12/30 03:07:31;;;;;;;2.95;0.85;;;14.60;99.90;;;;;;5086768;28;20307;-74
2021/12/30 03:09:56;;;;;;;3.65;0.40;;;14.60;99.90;;;;;;5085796;28;20031;-74
2021/12/30 03:12:23;;;;;;;1.27;0.32;;;14.60;99.90;;;;;;5084718;28;20032;-74
2021/12/30 03:14:48;;;;;;;2.80;0.52;;;14.60;99.90;;;;;;5085767;28;20036;-74
2021/12/30 03:17:14;;;;;;;3.70;0.77;;;14.60;99.90;;;;;;5086535;28;20039;-74
2021/12/30 03:19:40;;;;;;;1.58;0.70;;;14.60;99.90;;;;;;5085577;28;20024;-74
2021/12/30 03:22:06;;;;;;;3.25;0.55;;;14.50;99.90;;;;;;5086734;28;20055;-74
2021/12/30 03:24:31;;;;;;;2.45;0.60;;;14.50;99.90;;;;;;5085567;28;20016;-75
2021/12/30 03:26:57;;;;;;;2.47;0.80;;;14.50;99.90;;;;;;5086430;28;20038;-74
2021/12/30 03:29:23;;;;;;;5.45;0.90;;;14.50;99.90;;;;;;5086303;28;20036;-75
2021/12/30 03:31:49;;;;;;;3.50;0.70;;;14.50;99.90;;;;;;5085661;28;20020;-74
2021/12/30 03:34:14;;;;;;;6.28;0.77;;;14.50;99.90;;;;;;5086345;28;20047;-75
2021/12/30 03:36:40;;;;;;;5.90;0.85;;;14.50;99.90;;;;;;5086343;28;20314;-74
2021/12/30 03:39:06;;;;;;;4.40;0.73;;;14.50;99.90;;;;;;5085874;28;20070;-74
2021/12/30 03:41:32;;;;;;;7.32;1.00;;;14.50;99.90;;;;;;5084849;28;20051;-74
2021/12/30 03:44:00;;;;;;;2.90;0.68;;;14.50;99.90;;;;;;5084795;28;20075;-74
2021/12/30 03:46:27;;;;;;;4.78;0.80;;;14.50;99.90;;;;;;5085015;28;20024;-74
2021/12/30 03:48:52;;;;;;;6.00;1.13;;;14.50;99.90;;;;;;5086064;28;20032;-74
2021/12/30 03:51:22;;;;;;;7.22;1.20;;;14.60;99.90;;;;;;5085670;28;20088;-73
2021/12/30 03:53:49;;;;;;;5.78;1.27;;;14.60;99.90;;;;;;5068731;28;20016;-74
2021/12/30 03:56:19;;;;;;;9.60;1.95;;;14.60;99.90;;;;;;5051659;28;20247;-74
2021/12/30 03:58:45;;;;;;;7.47;1.35;;;14.60;99.90;;;;;;5085908;28;20016;-74
2021/12/30 04:01:14;;;;;;;7.78;1.63;;;14.60;99.90;;;;;;5085131;28;20029;-74
2021/12/30 04:03:40;;;;;;;5.60;1.30;;;14.60;99.90;;;;;;5085685;28;20020;-74
2021/12/30 04:06:06;;;;;;;12.27;2.03;;;14.60;99.90;;;;;;5084775;28;20047;-75
2021/12/30 04:08:34;;;;;;;9.98;1.92;;;14.60;99.90;;;;;;5085741;28;20087;-74
2021/12/30 04:11:00;;;;;;;14.38;2.63;;;14.60;99.90;;;;;;5084096;28;20028;-75
2021/12/30 04:13:27;;;;;;;8.52;1.75;;;14.60;99.90;;;;;;5066506;28;20208;-73
2021/12/30 04:15:54;;;;;;;13.18;2.30;;;14.70;99.90;;;;;;5084552;28;20215;-74
2021/12/30 04:18:20;;;;;;;8.77;1.70;;;14.60;99.90;;;;;;5084501;28;20025;-74
2021/12/30 04:20:46;;;;;;;10.32;1.92;;;14.60;99.90;;;;;;5084386;28;20215;-74
2021/12/30 04:23:13;;;;;;;9.15;2.03;;;14.60;99.90;;;;;;5084296;28;20033;-74
2021/12/30 04:25:39;;;;;;;9.65;2.30;;;14.60;99.90;;;;;;5085284;28;20020;-74
2021/12/30 04:28:05;;;;;;;14.40;2.30;;;14.60;99.90;;;;;;5085164;28;20211;-76
2021/12/30 04:30:31;;;;;;;14.07;2.17;;;14.60;99.90;;;;;;5085166;28;20050;-74
2021/12/30 04:32:57;;;;;;;10.20;2.38;;;14.60;99.90;;;;;;5084127;28;20052;-74
2021/12/30 04:35:23;;;;;;;9.10;2.00;;;14.60;99.90;;;;;;5085052;28;20334;-74
2021/12/30 04:37:49;;;;;;;14.43;2.65;;;14.60;99.90;;;;;;5085118;28;20031;-73
2021/12/30 04:40:15;;;;;;;15.65;2.30;;;14.60;99.90;;;;;;5085094;28;20025;-75
2021/12/30 04:42:43;;;;;;;15.73;3.38;;;14.60;99.90;;;;;;5083739;28;20020;-74
2021/12/30 04:45:11;;;;;;;14.65;2.63;;;14.60;99.90;;;;;;5085031;28;20081;-74
2021/12/30 04:47:39;;;;;;;15.20;2.70;;;14.60;99.90;;;;;;5084854;28;20021;-74
2021/12/30 04:50:08;;;;;;;21.13;3.05;;;14.60;99.90;;;;;;5083923;28;20078;-74
2021/12/30 04:52:34;;;;;;;12.20;2.42;;;14.50;99.90;;;;;;5083832;28;20027;-75
2021/12/30 04:54:59;;;;;;;16.48;2.83;;;14.50;99.90;;;;;;5093189;28;20017;-74
2021/12/30 04:57:25;;;;;;;19.67;2.90;;;14.40;99.90;;;;;;5099775;28;20067;-74
2021/12/30 04:59:51;;;;;;;18.40;3.10;;;14.40;99.90;;;;;;5098516;28;20052;-74
2021/12/30 05:02:16;;;;;;;15.27;2.90;;;14.40;99.90;;;;;;5092047;28;20291;-74
2021/12/30 05:04:42;;;;;;;22.90;3.45;;;14.40;99.90;;;;;;5084999;28;20211;-74
2021/12/30 05:07:08;;;;;;;14.80;3.70;;;14.40;99.90;;;;;;5084673;28;20066;-74
2021/12/30 05:09:34;;;;;;;16.92;3.40;;;14.40;99.90;;;;;;5084546;28;20066;-74
2021/12/30 05:11:59;;;;;;;17.58;3.22;;;14.40;99.90;;;;;;5084196;28;20076;-74
2021/12/30 05:14:25;;;;;;;26.95;3.78;;;14.40;99.90;;;;;;5082723;28;20036;-74
2021/12/30 05:16:52;;;;;;;18.27;3.42;;;14.40;99.90;;;;;;5083703;28;20095;-74
2021/12/30 05:19:18;;;;;;;24.27;3.90;;;14.50;99.90;;;;;;5084232;28;20031;-74
2021/12/30 05:21:43;;;;;;;17.33;2.88;;;14.40;99.90;;;;;;5084440;28;20371;-73
2021/12/30 05:24:09;;;;;;;22.00;3.60;;;14.30;99.90;;;;;;5084187;28;20356;-75
2021/12/30 05:26:35;;;;;;;19.98;2.90;;;14.40;99.90;;;;;;5084147;28;20236;-74
2021/12/30 05:29:03;;;;;;;26.52;3.65;;;14.40;99.90;;;;;;5082422;28;20032;-74
2021/12/30 05:31:29;;;;;;;18.10;2.88;;;14.30;99.90;;;;;;5082809;28;20047;-73
2021/12/30 05:33:55;;;;;;;20.73;3.58;;;14.30;99.90;;;;;;5083670;28;20060;-74
2021/12/30 05:36:20;;;;;;;21.08;3.30;;;14.30;99.90;;;;;;5083286;28;20107;-74
2021/12/30 05:38:46;;;;;;;23.73;4.25;;;14.30;99.90;;;;;;5084171;28;20348;-74
2021/12/30 05:41:12;;;;;;;22.92;3.05;;;14.30;99.90;;;;;;5084088;28;20020;-74
2021/12/30 05:43:38;;;;;;;25.52;3.63;;;14.30;99.90;;;;;;5083949;28;20020;-74
2021/12/30 05:46:04;;;;;;;22.55;3.63;;;14.30;99.90;;;;;;5083763;28;20039;-73
2021/12/30 05:48:30;;;;;;;16.70;2.92;;;14.20;99.90;;;;;;5083862;28;20300;-74
2021/12/30 05:50:59;;;;;;;16.48;3.67;;;14.20;99.90;;;;;;5083270;28;20096;-75
2021/12/30 05:53:26;;;;;;;21.20;2.88;;;14.20;99.90;;;;;;5083668;28;20017;-74
2021/12/30 05:55:52;;;;;;;16.98;3.10;;;14.10;99.90;;;;;;5083866;28;20013;-76
2021/12/30 05:58:18;;;;;;;15.73;2.83;;;14.10;99.90;;;;;;5084023;28;20180;-74
2021/12/30 06:00:44;;;;;;;20.40;3.92;;;14.10;99.90;;;;;;5083824;28;20020;-76
2021/12/30 06:03:10;;;;;;;26.05;3.78;;;14.10;99.90;;;;;;5083197;28;20188;-73
2021/12/30 06:05:35;;;;;;;18.92;3.20;;;14.10;99.90;;;;;;5083893;28;20084;-74
2021/12/30 06:08:01;;;;;;;18.95;3.67;;;14.10;99.90;;;;;;5083887;28;20031;-73
2021/12/30 06:10:27;;;;;;;22.58;3.55;;;14.10;99.90;;;;;;5083562;28;20021;-74
2021/12/30 06:12:53;;;;;;;14.50;2.88;;;14.10;99.90;;;;;;5082698;28;20078;-74
2021/12/30 06:15:18;;;;;;;17.83;2.97;;;14.00;99.90;;;;;;5082140;28;20027;-73
2021/12/30 06:17:44;;;;;;;19.30;3.40;;;14.00;99.90;;;;;;5083926;28;20307;-74
2021/12/30 06:20:13;;;;;;;21.52;4.05;;;14.00;99.90;;;;;;5083341;28;20016;-74
2021/12/30 06:22:40;;;;;;;21.70;3.63;;;14.00;99.90;;;;;;5082838;28;20044;-73
2021/12/30 06:25:06;;;;;;;17.15;3.17;;;14.10;99.90;;;;;;5083540;28;20032;-74
2021/12/30 06:27:32;;;;;;;17.20;3.00;;;14.10;99.90;;;;;;5083647;28;20031;-74
2021/12/30 06:29:58;;;;;;;22.98;4.07;;;14.10;99.90;;;;;;5086916;28;20020;-73
2021/12/30 06:32:24;;;;;;;23.67;3.42;;;14.10;99.90;;;;;;5086805;28;20230;-75
2021/12/30 06:34:49;;;;;;;19.70;3.70;;;14.10;99.90;;;;;;5087217;28;20366;-74
2021/12/30 06:37:15;;;;;;;22.00;3.75;;;14.10;99.90;;;;;;5087519;28;20059;-75
2021/12/30 06:39:41;;;;;;;25.92;3.40;;;14.10;99.90;;;;;;5087329;28;20016;-74
2021/12/30 06:42:07;;;;;;;16.88;3.25;;;14.10;99.90;;;;;;5087204;28;20033;-74
2021/12/30 06:44:32;;;;;;;19.10;3.20;;;14.20;99.90;;;;;;5086109;28;20023;-74
2021/12/30 06:47:00;;;;;;;19.88;3.38;;;14.20;99.90;;;;;;5085965;28;20078;-75
2021/12/30 06:49:34;;;;;;;15.00;3.03;;;14.20;99.90;;;;;;5086877;28;20272;-74
2021/12/30 06:51:59;;;;;;;16.17;2.40;;;14.30;99.90;;;;;;5070189;28;20096;-74
2021/12/30 06:54:25;;;;;;;23.15;2.83;;;14.30;99.90;;;;;;5087010;28;20017;-74
2021/12/30 06:56:55;;;;;;;14.23;2.25;;;14.20;99.90;;;;;;5086862;28;20075;-74
2021/12/30 06:59:21;;;;;;;14.18;3.30;;;14.20;99.90;;;;;;5087079;28;20062;-74
2021/12/30 07:01:47;;;;;;;14.57;2.45;;;14.30;99.90;;;;;;5085450;28;20025;-75
2021/12/30 07:04:13;;;;;;;14.25;2.65;;;14.30;99.90;;;;;;5086874;28;20028;-75
2021/12/30 07:06:39;;;;;;;14.95;2.30;;;14.30;99.90;;;;;;5085791;28;20035;-74
2021/12/30 07:09:05;;;;;;;11.85;2.53;;;14.20;99.90;;;;;;5085617;28;20024;-73
2021/12/30 07:11:31;;;;;;;11.20;2.33;;;14.20;99.90;;;;;;5068906;28;20303;-74
2021/12/30 07:13:57;;;;;;;12.05;1.92;;;14.20;99.90;;;;;;5086651;28;20083;-75
2021/12/30 07:16:22;;;;;;;14.48;2.03;;;14.20;99.90;;;;;;5084044;28;20025;-73
2021/12/30 07:18:48;;;;;;;13.15;1.98;;;14.20;99.90;;;;;;5086639;28;20048;-74
2021/12/30 07:21:15;;;;;;;11.40;1.90;;;14.20;99.90;;;;;;5086692;28;20020;-75
2021/12/30 07:23:41;;;;;;;9.88;1.60;;;14.20;99.90;;;;;;5085571;28;20012;-74
2021/12/30 07:26:07;;;;;;;11.95;2.03;;;14.20;99.90;;;;;;5086248;28;20054;-75
2021/12/30 07:28:32;;;;;;;13.73;2.17;;;14.20;99.90;;;;;;5085248;28;20024;-74
2021/12/30 07:30:58;;;;;;;8.98;1.63;;;14.20;99.90;;;;;;5086179;28;20119;-74
2021/12/30 07:33:24;;;;;;;9.65;2.00;;;14.30;99.90;;;;;;5085638;28;20243;-74
2021/12/30 07:35:49;;;;;;;10.70;1.92;;;14.30;99.90;;;;;;5086252;28;20070;-74
2021/12/30 07:38:15;;;;;;;9.32;1.70;;;14.40;99.90;;;;;;5086304;28;20028;-73
2021/12/30 07:40:41;;;;;;;5.78;1.88;;;14.40;99.90;;;;;;5084898;28;20020;-75
2021/12/30 07:43:06;;;;;;;10.18;1.60;;;14.40;99.90;;;;;;5086357;28;20050;-74
2021/12/30 07:45:32;;;;;;;11.07;1.98;;;14.50;99.90;;;;;;5084826;28;20031;-75
2021/12/30 07:47:58;;;;;;;8.57;1.67;;;14.50;99.90;;;;;;5084932;28;20024;-74
2021/12/30 07:50:24;;;;;;;14.13;1.90;;;14.50;99.90;;;;;;5086081;28;20024;-72
2021/12/30 07:52:50;;;;;;;12.73;2.85;;;14.50;99.90;;;;;;5086079;28;20021;-74
2021/12/30 07:55:17;;;;;;;10.43;1.95;;;14.50;99.90;;;;;;5084602;28;20024;-74
2021/12/30 07:57:43;;;;;;;10.85;2.00;;;14.50;99.90;;;;;;5098092;28;20023;-75
2021/12/30 08:00:12;;;;;;;9.23;1.45;;;14.50;99.90;;;;;;5098581;28;20032;-74
2021/12/30 08:02:41;;;;;;;11.82;1.77;;;14.50;99.90;;;;;;5079895;28;20020;-74
2021/12/30 08:05:08;;;;;;;8.32;2.10;;;14.50;99.90;;;;;;5092638;28;20327;-74
2021/12/30 08:07:34;;;;;;;12.50;1.98;;;14.50;99.90;;;;;;5089585;28;20062;-74
2021/12/30 08:10:00;;;;;;;9.18;1.77;;;14.50;99.90;;;;;;5084560;28;20040;-74
2021/12/30 08:12:25;;;;;;;9.65;3.08;;;14.50;99.90;;;;;;5085368;28;20024;-74
2021/12/30 08:14:51;;;;;;;9.52;2.08;;;14.50;99.90;;;;;;5085631;28;20029;-74
2021/12/30 08:17:17;;;;;;;13.35;2.20;;;14.50;99.90;;;;;;5082561;28;20012;-74
2021/12/30 08:19:43;;;;;;;5.75;1.65;;;14.50;99.90;;;;;;5085510;28;20020;-74
2021/12/30 08:22:09;;;;;;;9.30;1.98;;;14.50;99.90;;;;;;5084296;28;20028;-74
2021/12/30 08:24:35;;;;;;;9.93;1.63;;;14.50;99.90;;;;;;5085177;28;20024;-75
2021/12/30 08:27:01;;;;;;;10.65;2.22;;;14.50;99.90;;;;;;5084855;28;20319;-75
2021/12/30 08:29:27;;;;;;;10.02;2.20;;;14.50;99.90;;;;;;5084078;28;20282;-75
2021/12/30 08:31:53;;;;;;;9.90;1.75;;;14.50;99.90;;;;;;5083378;28;20028;-76
2021/12/30 08:34:19;;;;;;;10.70;2.03;;;14.40;99.90;;;;;;5085101;28;20024;-75
2021/12/30 08:36:44;;;;;;;11.25;2.00;;;14.40;99.90;;;;;;5085040;28;20254;-74
2021/12/30 08:39:10;;;;;;;10.63;2.05;;;14.40;99.90;;;;;;5084844;28;20021;-75
2021/12/30 08:41:35;;;;;;;11.00;2.17;;;14.40;99.90;;;;;;5083845;28;20040;-75
2021/12/30 08:44:01;;;;;;;8.18;1.88;;;14.40;99.90;;;;;;5085177;28;20310;-75
2021/12/30 08:46:27;;;;;;;11.25;1.90;;;14.40;99.90;;;;;;5084693;28;20048;-75
2021/12/30 08:48:52;;;;;;;10.63;2.10;;;14.40;99.90;;;;;;5084862;28;20028;-76
2021/12/30 08:51:18;;;;;;;8.60;1.70;;;14.40;99.90;;;;;;5084543;28;20028;-76
2021/12/30 08:53:44;;;;;;;9.95;1.83;;;14.40;99.90;;;;;;5066924;28;20024;-74
2021/12/30 08:56:12;;;;;;;9.50;1.60;;;14.40;99.90;;;;;;5066459;28;20023;-75
2021/12/30 08:58:39;;;;;;;8.38;1.75;;;14.50;99.90;;;;;;5083824;28;20054;-74
2021/12/30 09:01:05;;;;;;;7.93;1.60;;;14.50;99.90;;;;;;5084366;28;20107;-75
2021/12/30 09:03:31;;;;;;;12.88;1.65;;;14.50;99.90;;;;;;5084349;28;20020;-75
2021/12/30 09:05:57;;;;;;;8.43;2.05;;;14.50;99.90;;;;;;5083474;28;20024;-75
2021/12/30 09:08:23;;;;;;;6.07;1.30;;;14.50;99.90;;;;;;5084574;28;20090;-75
2021/12/30 09:10:50;;;;;;;8.45;1.45;;;14.60;99.90;;;;;;5082947;28;20028;-76
2021/12/30 09:13:18;;;;;;;7.40;1.23;;;14.60;99.90;;;;;;5083659;28;20016;-75
2021/12/30 09:15:45;;;;;;;9.40;1.38;;;14.60;99.90;;;;;;5083518;28;20017;-75
2021/12/30 09:18:11;;;;;;;7.07;1.38;;;14.60;99.90;;;;;;5081337;28;20093;-77
2021/12/30 09:20:39;;;;;;;7.22;1.77;;;14.70;99.90;;;;;;5083101;28;20052;-75
2021/12/30 09:23:06;;;;;;;9.27;1.33;;;14.70;99.90;;;;;;5083095;28;20012;-75
2021/12/30 09:25:32;;;;;;;7.75;1.40;;;14.70;99.90;;;;;;5066537;28;20095;-75
2021/12/30 09:27:58;;;;;;;6.97;1.70;;;14.70;99.90;;;;;;5049490;28;20032;-75
2021/12/30 09:30:26;;;;;;;7.50;1.23;;;14.70;99.90;;;;;;5084219;28;20051;-75
2021/12/30 09:32:54;;;;;;;8.68;1.20;;;14.80;99.90;;;;;;5082265;28;20111;-76
2021/12/30 09:35:20;;;;;;;5.68;1.02;;;14.80;99.90;;;;;;5083402;28;20199;-75
2021/12/30 09:37:47;;;;;;;8.80;1.30;;;14.80;99.90;;;;;;5066299;28;20021;-73
2021/12/30 09:40:15;;;;;;;4.13;0.90;;;14.90;99.90;;;;;;5083944;28;20409;-74
2021/12/30 09:42:46;;;;;;;4.75;1.10;;;14.90;99.90;;;;;;5083898;28;20025;-74
2021/12/30 09:45:12;;;;;;;6.07;1.42;;;14.90;99.90;;;;;;5084236;28;20296;-74
2021/12/30 09:47:45;;;;;;;5.32;1.50;;;15.00;99.90;;;;;;5082682;28;20058;-74
2021/12/30 09:50:11;;;;;;;4.10;0.80;;;15.00;99.90;;;;;;5083056;28;20021;-74
2021/12/30 09:52:37;;;;;;;3.60;0.90;;;15.00;99.90;;;;;;5083830;28;20031;-78
2021/12/30 09:55:03;;;;;;;5.47;1.10;;;15.00;99.90;;;;;;5082728;28;20028;-76
2021/12/30 09:57:28;;;;;;;4.60;1.10;;;15.10;99.90;;;;;;5083700;28;20088;-75
2021/12/30 09:59:55;;;;;;;7.15;1.33;;;15.10;99.90;;;;;;5084021;28;20020;-76
2021/12/30 10:02:20;;;;;;;3.55;1.30;;;15.10;99.90;;;;;;5065723;28;20192;-74
2021/12/30 10:04:46;;;;;;;3.83;1.23;;;15.10;99.90;;;;;;5087051;28;20017;-73
2021/12/30 10:07:21;;;;;;;4.40;0.88;;;15.10;99.90;;;;;;5086399;28;20300;-75
2021/12/30 10:09:52;;;;;;;2.95;0.82;;;15.10;99.90;;;;;;5086921;28;20035;-76
2021/12/30 10:12:40;;;;;;;5.47;1.60;;;15.10;99.90;;;;;;5088004;28;20033;-74
2021/12/30 10:15:07;;;;;;;8.20;1.05;;;15.10;99.90;;;;;;5086882;28;20057;-74
2021/12/30 10:17:34;;;;;;;4.93;0.70;;;15.20;99.90;;;;;;5087618;28;20025;-76
2021/12/30 10:20:24;;;;;;;3.70;1.38;;;15.20;99.90;;;;;;5086411;28;20021;-76
2021/12/30 10:22:50;;;;;;;6.40;1.00;;;15.30;99.90;;;;;;5086575;28;20013;-75
2021/12/30 10:25:36;;;;;;;7.53;1.02;;;15.20;99.90;;;;;;5087776;28;20023;-77
2021/12/30 10:28:36;;;;;;;9.82;1.20;;;15.20;99.90;;;;;;5086014;28;20099;-75
2021/12/30 10:31:17;;;;;;;5.88;0.90;;;15.10;99.90;;;;;;5074515;28;20315;-77
2021/12/30 10:34:04;;;;;;;4.13;1.05;;;15.10;99.90;;;;;;5086195;28;20056;-75
2021/12/30 10:36:38;;;;;;;3.15;0.90;;;15.10;99.90;;;;;;5086479;28;20040;-75
2021/12/30 10:39:25;;;;;;;4.32;1.00;;;15.20;99.90;;;;;;5087084;28;20025;-75
2021/12/30 10:42:15;;;;;;;4.03;1.23;;;15.10;99.90;;;;;;5086386;28;20013;-75
2021/12/30 10:45:08;;;;;;;8.43;1.60;;;15.10;99.90;;;;;;5086424;28;20358;-75
2021/12/30 10:47:50;;;;;;;2.97;0.70;;;15.10;99.90;;;;;;5087059;28;20027;-75
2021/12/30 10:50:21;;;;;;;8.93;1.23;;;15.10;99.90;;;;;;5087210;28;20028;-74
2021/12/30 10:52:52;;;;;;;4.38;1.00;;;15.20;99.90;;;;;;5052734;28;20200;-76
2021/12/30 10:55:18;;;;;;;7.88;1.08;;;15.10;99.90;;;;;;5085767;28;20020;-76
2021/12/30 10:57:44;;;;;;;6.97;1.27;;;15.10;99.90;;;;;;5087202;28;20043;-75
2021/12/30 11:00:23;;;;;;;5.07;1.15;;;15.20;99.90;;;;;;5092496;28;20028;-75
2021/12/30 11:02:48;;;;;;;6.75;1.15;;;15.30;99.90;;;;;;5099578;28;20031;-74
2021/12/30 11:05:14;;;;;;;4.43;1.02;;;15.30;99.90;;;;;;5098431;28;20028;-74
2021/12/30 11:07:51;;;;;;;6.38;1.50;;;15.30;99.90;;;;;;5095537;28;20012;-74
2021/12/30 11:10:30;;;;;;;8.32;1.30;;;15.40;99.90;;;;;;5092193;28;20054;-75
2021/12/30 11:13:12;;;;;;;9.45;1.30;;;15.40;99.90;;;;;;5085736;28;20070;-76
2021/12/30 11:15:39;;;;;;;6.40;1.33;;;15.40;99.90;;;;;;5085538;28;20020;-75
2021/12/30 11:18:07;;;;;;;3.53;1.20;;;15.40;99.90;;;;;;5069090;28;20028;-76
2021/12/30 11:20:38;;;;;;;6.18;1.13;;;15.50;99.90;;;;;;5083747;28;20027;-76
2021/12/30 11:23:04;;;;;;;7.45;1.30;;;15.60;99.90;;;;;;5085505;28;20089;-75
2021/12/30 11:25:31;;;;;;;5.47;1.10;;;15.60;99.90;;;;;;5086622;28;20220;-75
2021/12/30 11:27:58;;;;;;;5.82;1.20;;;15.60;99.90;;;;;;5086505;28;20027;-76
2021/12/30 11:30:24;;;;;;;3.10;0.98;;;15.70;99.90;;;;;;5086209;28;20320;-73
2021/12/30 11:32:51;;;;;;;4.50;0.68;;;15.70;99.90;;;;;;5085917;28;20052;-76
2021/12/30 11:35:19;;;;;;;5.43;0.90;;;15.70;99.90;;;;;;5086418;28;20031;-76
2021/12/30 11:37:46;;;;;;;3.72;0.95;;;15.70;99.90;;;;;;5085319;28;20066;-76
2021/12/30 11:40:17;;;;;;;6.80;1.20;;;15.70;99.90;;;;;;5086026;28;20025;-76
2021/12/30 11:42:52;;;;;;;4.05;0.82;;;15.80;99.90;;;;;;5085202;28;20062;-75
2021/12/30 11:45:46;;;;;;;5.03;0.75;;;15.80;99.90;;;;;;5085184;28;20030;-75
2021/12/30 11:48:38;;;;;;;3.53;1.02;;;15.80;99.90;;;;;;5065283;28;20031;-75
2021/12/30 11:51:07;;;;;;;3.25;0.70;;;15.80;99.90;;;;;;5064830;28;20028;-75
2021/12/30 11:53:33;;;;;;;3.00;0.52;;;15.80;99.90;;;;;;5065839;28;20021;-74
2021/12/30 11:56:22;;;;;;;3.00;0.50;;;15.70;99.90;;;;;;5066024;28;20088;-76
2021/12/30 11:58:51;;;;;;;3.67;0.65;;;15.70;99.90;;;;;;5078411;28;20020;-76
2021/12/30 12:01:31;;;;;;;7.25;1.00;;;15.80;99.90;;;;;;5065479;28;20048;-75
2021/12/30 12:04:08;;;;;;;4.97;0.85;;;15.90;99.90;;;;;;5081371;28;20079;-75
2021/12/30 12:06:39;;;;;;;3.78;0.80;;;15.90;99.90;;;;;;5065474;28;20039;-75
2021/12/30 12:09:33;;;;;;;3.93;0.80;;;15.90;99.90;;;;;;5064831;28;20067;-75
2021/12/30 12:12:04;;;;;;;2.67;0.50;;;16.00;99.90;;;;;;5077622;28;20017;-75
2021/12/30 12:14:35;;;;;;;1.80;0.50;;;16.10;99.90;;;;;;5064527;28;20036;-75
2021/12/30 12:17:06;;;;;;;4.45;0.68;;;16.10;99.90;;;;;;5065542;28;20074;-76
2021/12/30 12:19:42;;;;;;;5.38;0.70;;;16.10;99.90;;;;;;5064763;28;20032;-76
2021/12/30 12:22:28;;;;;;;2.50;0.70;;;16.10;99.90;;;;;;5065319;28;20322;-74
2021/12/30 12:25:15;;;;;;;3.78;0.70;;;16.10;99.90;;;;;;5065538;28;20036;-75
2021/12/30 12:27:48;;;;;;;3.35;0.65;;;16.10;99.90;;;;;;5063676;28;20025;-74
2021/12/30 12:30:35;;;;;;;2.60;0.55;;;16.00;99.90;;;;;;5081067;28;20063;-78
2021/12/30 12:33:22;;;;;;;1.38;0.50;;;16.00;99.90;;;;;;5083373;28;20048;-76
2021/12/30 12:35:48;;;;;;;1.65;0.40;;;16.10;99.90;;;;;;5084484;28;20058;-75
2021/12/30 12:38:14;;;;;;;2.47;0.70;;;16.10;99.90;;;;;;5085186;28;20044;-75
2021/12/30 12:40:43;;;;;;;1.63;0.60;;;16.10;99.90;;;;;;5084814;28;20040;-75
2021/12/30 12:43:13;;;;;;;1.73;0.50;;;16.20;99.90;;;;;;5084075;28;20013;-74
2021/12/30 12:45:53;;;;;;;2.55;0.50;;;16.10;99.90;;;;;;5083843;28;20021;-77
2021/12/30 12:48:23;;;;;;;2.58;0.57;;;16.00;99.90;;;;;;5064064;28;20201;-75
2021/12/30 12:51:20;;;;;;;2.83;0.60;;;16.00;99.90;;;;;;5064478;28;20092;-75
2021/12/30 12:53:48;;;;;;;3.67;1.15;;;16.00;99.90;;;;;;5077670;28;20084;-76